APN weather

Alpena County Regional Airport
Alpena, Michigan, United States

Public forecast

Using degrees Fahrenheit for public forecast. Weather courtesy of forecast.io.

Current aviation weather report (METAR) for Alpena County Regional Airport

Retrieved 2020/06/02 07:54 UTC (1 hour ago):

KAPN 020754Z AUTO 16006KT 10SM -RA OVC046 14/13 A2985 RMK AO2 RAB0656E24B47 SLP108 P0001 T01390128

Aviation forecast (TAF) for Alpena County Regional Airport

Retrieved 2020/06/02 06:40 UTC (2 hours ago):

TAF KAPN 020538Z 0206/0306 18005KT P6SM -SHRA OVC045 WS020/23040KT FM020700 19007KT P6SM VCSH OVC035 WS020/24035KT FM020900 18005KT P6SM OVC035 WS020/26035KT FM021100 22005KT P6SM BKN040 FM021800 28006KT P6SM SCT060 FM022000 28008KT P6SM SCT060 FM022300 31007KT P6SM SCT060